Time;durP1;ratioP1;P1;durP2;ratioP2;P2;SDS_P1;SDS_P2;PMS_P1;PMS_P2;Temp;Humidity;BMP_temperature;BMP_pressure;BME280_temperature;BME280_humidity;BME280_pressure;Samples;Min_cycle;Max_cycle;Signal;HPM_P1;HPM_P2
2022/12/01 00:00:59;;;;;;;50.45;25.08;;;;;;;;;;5167133;27;20047;-69
2022/12/01 00:03:25;;;;;;;45.88;24.75;;;;;;;;;;5166189;27;20051;-71
2022/12/01 00:06:02;;;;;;;45.05;21.63;;;;;;;;;;5160032;27;20377;-70
2022/12/01 00:08:29;;;;;;;51.50;25.73;;;;;;;;;;5162307;27;20058;-69
2022/12/01 00:10:55;;;;;;;48.05;24.05;;;;;;;;;;5157074;27;20046;-70
2022/12/01 00:13:21;;;;;;;46.33;23.17;;;;;;;;;;5167075;27;20057;-70
2022/12/01 00:15:48;;;;;;;48.70;25.40;;;;;;;;;;5167579;27;20046;-72
2022/12/01 00:18:14;;;;;;;43.92;22.63;;;;;;;;;;5169842;27;20091;-70
2022/12/01 00:20:40;;;;;;;46.88;23.58;;;;;;;;;;5170228;27;20582;-70
2022/12/01 00:23:07;;;;;;;44.13;21.83;;;;;;;;;;5165252;27;20062;-71
2022/12/01 00:25:33;;;;;;;54.30;23.55;;;;;;;;;;5143008;27;20058;-73
2022/12/01 00:27:59;;;;;;;48.65;23.55;;;;;;;;;;5161582;27;20038;-72
2022/12/01 00:30:26;;;;;;;44.90;22.65;;;;;;;;;;5158072;27;20044;-72
2022/12/01 00:32:52;;;;;;;41.85;22.70;;;;;;;;;;5158261;27;20162;-72
2022/12/01 00:35:18;;;;;;;45.90;22.92;;;;;;;;;;5166153;27;20056;-72
2022/12/01 00:37:45;;;;;;;42.72;22.35;;;;;;;;;;5165804;27;20325;-72
2022/12/01 00:40:11;;;;;;;47.67;23.05;;;;;;;;;;5165111;27;20130;-71
2022/12/01 00:42:38;;;;;;;51.08;23.20;;;;;;;;;;5165785;27;20539;-72
2022/12/01 00:45:04;;;;;;;48.60;22.42;;;;;;;;;;5163567;27;20512;-71
2022/12/01 00:47:30;;;;;;;46.20;22.75;;;;;;;;;;5165280;27;20054;-70
2022/12/01 00:49:57;;;;;;;47.05;23.83;;;;;;;;;;5165389;27;20043;-71
2022/12/01 00:52:23;;;;;;;40.83;21.40;;;;;;;;;;5165286;27;20580;-70
2022/12/01 00:54:50;;;;;;;49.63;23.70;;;;;;;;;;5145976;27;20100;-70
2022/12/01 00:57:16;;;;;;;48.20;24.30;;;;;;;;;;5146179;27;20058;-69
2022/12/01 00:59:42;;;;;;;47.65;22.27;;;;;;;;;;5165169;27;20079;-70
2022/12/01 01:02:09;;;;;;;48.65;23.27;;;;;;;;;;5162349;27;20047;-70
2022/12/01 01:04:36;;;;;;;45.65;22.10;;;;;;;;;;5161681;27;20589;-70
2022/12/01 01:07:02;;;;;;;46.70;23.63;;;;;;;;;;5165305;27;20047;-70
2022/12/01 01:09:29;;;;;;;45.30;22.48;;;;;;;;;;5164120;27;20518;-70
2022/12/01 01:11:56;;;;;;;45.75;22.77;;;;;;;;;;5165194;27;20129;-70
2022/12/01 01:14:23;;;;;;;43.70;21.90;;;;;;;;;;5164030;27;20054;-70
2022/12/01 01:16:49;;;;;;;50.33;23.63;;;;;;;;;;5166386;27;20046;-71
2022/12/01 01:19:16;;;;;;;49.15;22.27;;;;;;;;;;5164628;27;20448;-70
2022/12/01 01:21:42;;;;;;;42.10;21.98;;;;;;;;;;5166121;27;20047;-69
2022/12/01 01:24:09;;;;;;;46.53;22.77;;;;;;;;;;5164514;27;20063;-70
2022/12/01 01:26:36;;;;;;;44.47;21.45;;;;;;;;;;5147437;27;20126;-70
2022/12/01 01:29:03;;;;;;;41.08;20.35;;;;;;;;;;5161307;27;20051;-70
2022/12/01 01:31:30;;;;;;;41.75;21.17;;;;;;;;;;5164186;27;20555;-71
2022/12/01 01:33:57;;;;;;;60.50;23.27;;;;;;;;;;5163980;27;20054;-70
2022/12/01 01:36:23;;;;;;;47.05;22.67;;;;;;;;;;5163489;27;20073;-69
2022/12/01 01:38:50;;;;;;;48.67;22.80;;;;;;;;;;5145037;27;20050;-69
2022/12/01 01:41:17;;;;;;;48.58;22.17;;;;;;;;;;5164275;27;20504;-70
2022/12/01 01:43:46;;;;;;;46.97;22.77;;;;;;;;;;5165061;27;20058;-70
2022/12/01 01:46:17;;;;;;;48.90;23.75;;;;;;;;;;5162537;27;20058;-71
2022/12/01 01:48:48;;;;;;;48.85;23.25;;;;;;;;;;5158349;27;20154;-70
2022/12/01 01:51:16;;;;;;;49.03;22.95;;;;;;;;;;5154072;27;20138;-70
2022/12/01 01:53:44;;;;;;;49.28;22.05;;;;;;;;;;5165580;27;20055;-69
2022/12/01 01:56:10;;;;;;;48.03;23.35;;;;;;;;;;5163624;27;20051;-70
2022/12/01 01:58:37;;;;;;;41.30;21.85;;;;;;;;;;5163837;27;20543;-70
2022/12/01 02:01:04;;;;;;;50.90;23.05;;;;;;;;;;5161507;27;20051;-70
2022/12/01 02:03:32;;;;;;;48.17;22.80;;;;;;;;;;5160107;27;20188;-71
2022/12/01 02:05:58;;;;;;;44.38;22.10;;;;;;;;;;5160594;27;20046;-70
2022/12/01 02:08:31;;;;;;;54.13;24.17;;;;;;;;;;5164189;27;20054;-70
2022/12/01 02:11:20;;;;;;;46.40;22.02;;;;;;;;;;5163433;27;20050;-70
2022/12/01 02:14:06;;;;;;;48.22;23.42;;;;;;;;;;5134634;27;20059;-70
2022/12/01 02:16:41;;;;;;;53.70;24.43;;;;;;;;;;5155962;27;20039;-70
2022/12/01 02:19:10;;;;;;;51.35;23.02;;;;;;;;;;5160177;27;20360;-71
2022/12/01 02:21:37;;;;;;;50.38;24.67;;;;;;;;;;5161967;27;20054;-71
2022/12/01 02:24:15;;;;;;;55.28;24.42;;;;;;;;;;5156411;27;20768;-69
2022/12/01 02:26:42;;;;;;;43.58;22.00;;;;;;;;;;5159581;27;20051;-71
2022/12/01 02:29:14;;;;;;;50.88;23.00;;;;;;;;;;5163490;27;20054;-72
2022/12/01 02:31:44;;;;;;;50.35;23.05;;;;;;;;;;5160751;27;20050;-69
2022/12/01 02:34:20;;;;;;;53.20;22.67;;;;;;;;;;5144019;27;20051;-70
2022/12/01 02:36:47;;;;;;;;;;;;;;;;;;5162004;27;20047;-70
2022/12/01 02:39:21;;;;;;;51.70;22.45;;;;;;;;;;5151884;27;44311;-70
2022/12/01 02:41:52;;;;;;;54.70;24.13;;;;;;;;;;5148901;27;20055;-69
2022/12/01 02:44:20;;;;;;;53.92;24.02;;;;;;;;;;5162628;27;20046;-69
2022/12/01 02:46:54;;;;;;;54.15;24.52;;;;;;;;;;5160392;27;20134;-70
2022/12/01 02:49:24;;;;;;;60.00;25.20;;;;;;;;;;5158448;27;20055;-70
2022/12/01 02:51:52;;;;;;;61.00;24.83;;;;;;;;;;5163701;27;20047;-70
2022/12/01 02:54:20;;;;;;;55.67;24.73;;;;;;;;;;5162644;27;20492;-71
2022/12/01 02:56:50;;;;;;;53.00;24.90;;;;;;;;;;5162865;27;20055;-70
2022/12/01 02:59:16;;;;;;;51.00;23.65;;;;;;;;;;5161520;27;20531;-70
2022/12/01 03:02:01;;;;;;;54.53;24.30;;;;;;;;;;5160680;27;20045;-72
2022/12/01 03:04:37;;;;;;;57.08;25.42;;;;;;;;;;5157941;27;20043;-71
2022/12/01 03:07:25;;;;;;;59.42;24.90;;;;;;;;;;5158262;27;20521;-70
2022/12/01 03:10:12;;;;;;;51.65;25.20;;;;;;;;;;5147725;27;20138;-71
2022/12/01 03:12:38;;;;;;;54.05;23.35;;;;;;;;;;5163926;27;20543;-72
2022/12/01 03:15:11;;;;;;;52.85;25.15;;;;;;;;;;5160587;27;20125;-71
2022/12/01 03:17:41;;;;;;;53.88;23.88;;;;;;;;;;5161145;27;20061;-71
2022/12/01 03:20:20;;;;;;;54.83;24.70;;;;;;;;;;5143326;27;20077;-70
2022/12/01 03:22:50;;;;;;;57.78;24.60;;;;;;;;;;5153126;27;20400;-71
2022/12/01 03:25:17;;;;;;;59.45;24.58;;;;;;;;;;5158960;27;20245;-72
2022/12/01 03:27:45;;;;;;;52.90;23.67;;;;;;;;;;5166146;27;20494;-71
2022/12/01 03:30:36;;;;;;;56.97;24.88;;;;;;;;;;5163063;27;20050;-71
2022/12/01 03:33:03;;;;;;;53.97;24.40;;;;;;;;;;5164595;27;20050;-70
2022/12/01 03:35:56;;;;;;;49.92;24.17;;;;;;;;;;5150332;27;20069;-71
2022/12/01 03:38:24;;;;;;;52.28;24.13;;;;;;;;;;5107187;27;20050;-72
2022/12/01 03:40:52;;;;;;;51.47;22.42;;;;;;;;;;5167155;27;20199;-71
2022/12/01 03:43:22;;;;;;;55.60;24.60;;;;;;;;;;5165759;27;20055;-71
2022/12/01 03:45:57;;;;;;;55.90;23.15;;;;;;;;;;5165154;27;20488;-71
2022/12/01 03:48:24;;;;;;;56.95;25.42;;;;;;;;;;5164605;27;20053;-71
2022/12/01 03:50:57;;;;;;;54.10;22.70;;;;;;;;;;5166505;27;20050;-71
2022/12/01 03:53:26;;;;;;;52.10;23.50;;;;;;;;;;5164341;27;20082;-71
2022/12/01 03:55:57;;;;;;;55.92;22.23;;;;;;;;;;5165288;27;20061;-71
2022/12/01 03:58:33;;;;;;;50.17;22.40;;;;;;;;;;5166413;27;20153;-71
2022/12/01 04:01:03;;;;;;;55.50;24.67;;;;;;;;;;5164550;27;20524;-72
2022/12/01 04:03:30;;;;;;;51.95;23.77;;;;;;;;;;5160026;27;20480;-72
2022/12/01 04:05:56;;;;;;;51.58;23.67;;;;;;;;;;5166001;27;20054;-71
2022/12/01 04:08:23;;;;;;;52.72;23.80;;;;;;;;;;5164976;27;20643;-70
2022/12/01 04:10:49;;;;;;;53.40;23.17;;;;;;;;;;5164842;27;20600;-71
2022/12/01 04:13:21;;;;;;;52.92;23.33;;;;;;;;;;5165292;27;20051;-71
2022/12/01 04:15:54;;;;;;;59.33;24.40;;;;;;;;;;5163012;27;20050;-71
2022/12/01 04:18:20;;;;;;;53.78;24.30;;;;;;;;;;5163472;27;20072;-71
2022/12/01 04:20:48;;;;;;;60.20;24.05;;;;;;;;;;5163794;27;20051;-71
2022/12/01 04:23:58;;;;;;;64.18;26.65;;;;;;;;;;5163028;27;20055;-72
2022/12/01 04:26:01;;;;;;;53.53;23.70;;;;;;;;;;5163406;27;20050;-72
2022/12/01 04:28:28;;;;;;;54.70;23.42;;;;;;;;;;5162583;27;20059;-70
2022/12/01 04:30:54;;;;;;;58.60;26.67;;;;;;;;;;5165084;27;20503;-71
2022/12/01 04:33:21;;;;;;;58.72;25.73;;;;;;;;;;5163079;27;20099;-70
2022/12/01 04:35:59;;;;;;;56.95;22.73;;;;;;;;;;5164128;27;20050;-71
2022/12/01 04:38:26;;;;;;;59.13;24.58;;;;;;;;;;5163182;27;20547;-71
2022/12/01 04:40:56;;;;;;;63.17;25.27;;;;;;;;;;5163602;27;20115;-71
2022/12/01 04:43:22;;;;;;;56.33;24.05;;;;;;;;;;5160432;27;20537;-71
2022/12/01 04:45:49;;;;;;;61.75;24.80;;;;;;;;;;5160937;27;20054;-70
2022/12/01 04:48:15;;;;;;;60.78;24.27;;;;;;;;;;5165360;27;20047;-71
2022/12/01 04:50:41;;;;;;;62.45;24.23;;;;;;;;;;5163720;27;20526;-71
2022/12/01 04:53:08;;;;;;;58.70;23.92;;;;;;;;;;5164857;27;20043;-71
2022/12/01 04:55:38;;;;;;;60.03;25.08;;;;;;;;;;5161271;27;20058;-71
2022/12/01 04:58:04;;;;;;;55.72;22.38;;;;;;;;;;5146632;27;20058;-71
2022/12/01 05:00:31;;;;;;;62.88;25.92;;;;;;;;;;5162904;27;20050;-72
2022/12/01 05:02:58;;;;;;;59.63;24.23;;;;;;;;;;5164310;27;20169;-71
2022/12/01 05:05:25;;;;;;;64.70;25.08;;;;;;;;;;5161308;27;20498;-71
2022/12/01 05:07:51;;;;;;;59.35;24.52;;;;;;;;;;5165945;27;20509;-72
2022/12/01 05:10:18;;;;;;;63.65;26.35;;;;;;;;;;5163073;27;20405;-71
2022/12/01 05:12:47;;;;;;;59.90;24.52;;;;;;;;;;5163835;27;20047;-71
2022/12/01 05:15:13;;;;;;;53.42;23.40;;;;;;;;;;5161896;27;20472;-72
2022/12/01 05:17:39;;;;;;;60.72;24.15;;;;;;;;;;5166275;27;20055;-71
2022/12/01 05:22:51;;;;;;;57.08;23.98;;;;;;;;;;5163566;27;20046;-72
2022/12/01 05:25:38;;;;;;;69.93;26.30;;;;;;;;;;5163980;27;20043;-71
2022/12/01 05:28:05;;;;;;;68.97;25.98;;;;;;;;;;5164303;27;20127;-71
2022/12/01 05:30:31;;;;;;;61.88;23.88;;;;;;;;;;5162253;27;20039;-71
2022/12/01 05:32:57;;;;;;;56.72;23.67;;;;;;;;;;5164213;27;20276;-72
2022/12/01 05:35:24;;;;;;;54.20;23.52;;;;;;;;;;5162173;27;20145;-71
2022/12/01 05:37:50;;;;;;;63.08;25.23;;;;;;;;;;5164174;27;20050;-72
2022/12/01 05:40:16;;;;;;;64.13;24.63;;;;;;;;;;5164105;27;20050;-71
2022/12/01 05:42:43;;;;;;;55.97;24.13;;;;;;;;;;5164791;27;20103;-71
2022/12/01 05:45:09;;;;;;;65.40;26.60;;;;;;;;;;5163725;27;20137;-71
2022/12/01 05:47:36;;;;;;;58.33;23.55;;;;;;;;;;5139856;27;20129;-70
2022/12/01 05:50:02;;;;;;;65.05;25.50;;;;;;;;;;5163727;27;20606;-71
2022/12/01 05:52:32;;;;;;;61.92;25.45;;;;;;;;;;5164534;27;20535;-71
2022/12/01 05:54:58;;;;;;;63.20;25.00;;;;;;;;;;5164080;27;20051;-71
2022/12/01 05:57:24;;;;;;;56.17;22.35;;;;;;;;;;5162825;27;20054;-71
2022/12/01 05:59:51;;;;;;;66.93;25.10;;;;;;;;;;5162146;27;20061;-72
2022/12/01 06:02:17;;;;;;;61.42;26.48;;;;;;;;;;5163124;27;20560;-71
2022/12/01 06:04:43;;;;;;;60.35;25.65;;;;;;;;;;5159736;27;20071;-71
2022/12/01 06:07:09;;;;;;;62.72;26.42;;;;;;;;;;5162952;27;20047;-71
2022/12/01 06:09:36;;;;;;;57.80;26.33;;;;;;;;;;5145614;27;20051;-70
2022/12/01 06:12:02;;;;;;;62.13;23.00;;;;;;;;;;5161447;27;20232;-71
2022/12/01 06:14:28;;;;;;;67.00;25.67;;;;;;;;;;5163744;27;20046;-71
2022/12/01 06:16:55;;;;;;;57.10;24.38;;;;;;;;;;5161050;27;20057;-70
2022/12/01 06:19:21;;;;;;;55.63;23.90;;;;;;;;;;5161319;27;20302;-71
2022/12/01 06:21:47;;;;;;;55.63;24.17;;;;;;;;;;5163005;27;20095;-71
2022/12/01 06:24:14;;;;;;;56.22;24.50;;;;;;;;;;5158111;27;20047;-70
2022/12/01 06:26:40;;;;;;;60.00;25.67;;;;;;;;;;5163846;27;20046;-70
2022/12/01 06:29:08;;;;;;;62.75;24.85;;;;;;;;;;5162831;27;20051;-70
2022/12/01 06:31:35;;;;;;;55.28;25.90;;;;;;;;;;5160077;27;20576;-70
2022/12/01 06:34:02;;;;;;;64.50;25.52;;;;;;;;;;5162439;27;20134;-71
2022/12/01 06:36:28;;;;;;;61.70;24.70;;;;;;;;;;5164841;27;20076;-70
2022/12/01 06:38:54;;;;;;;65.60;26.38;;;;;;;;;;5161283;27;20046;-70
2022/12/01 06:41:21;;;;;;;64.90;24.80;;;;;;;;;;5162563;27;20058;-70
2022/12/01 06:43:47;;;;;;;56.33;24.38;;;;;;;;;;5162459;27;20138;-70
2022/12/01 06:46:14;;;;;;;63.95;26.25;;;;;;;;;;5163465;27;20057;-70
2022/12/01 06:48:40;;;;;;;61.97;24.05;;;;;;;;;;5163761;27;20101;-70
2022/12/01 06:51:07;;;;;;;66.25;27.65;;;;;;;;;;5163369;27;20504;-71
2022/12/01 06:53:36;;;;;;;61.20;24.42;;;;;;;;;;5163783;27;20047;-70
2022/12/01 06:56:03;;;;;;;60.92;23.45;;;;;;;;;;5162110;27;20098;-71
2022/12/01 06:58:30;;;;;;;52.85;22.20;;;;;;;;;;5159418;27;20074;-69
2022/12/01 07:00:57;;;;;;;63.47;24.25;;;;;;;;;;5152520;27;20051;-69
2022/12/01 07:03:24;;;;;;;58.70;25.15;;;;;;;;;;5159521;27;20043;-70
2022/12/01 07:05:57;;;;;;;66.00;24.02;;;;;;;;;;5152379;27;20053;-70
2022/12/01 07:08:24;;;;;;;66.07;26.23;;;;;;;;;;5166757;27;20050;-69
2022/12/01 07:10:57;;;;;;;62.72;25.73;;;;;;;;;;5164755;27;20053;-70
2022/12/01 07:13:23;;;;;;;57.67;24.15;;;;;;;;;;5162514;27;20043;-70
2022/12/01 07:15:56;;;;;;;60.70;24.45;;;;;;;;;;5165696;27;20046;-69
2022/12/01 07:18:23;;;;;;;61.45;27.02;;;;;;;;;;5162879;27;20546;-70
2022/12/01 07:20:49;;;;;;;60.78;24.60;;;;;;;;;;5164951;27;20043;-70
2022/12/01 07:23:15;;;;;;;74.20;26.02;;;;;;;;;;5166632;27;20067;-70
2022/12/01 07:25:42;;;;;;;68.38;25.88;;;;;;;;;;5164447;27;20396;-70
2022/12/01 07:28:08;;;;;;;65.25;25.77;;;;;;;;;;5158725;27;20059;-69
2022/12/01 07:30:34;;;;;;;74.47;26.67;;;;;;;;;;5156722;27;20121;-70
2022/12/01 07:33:01;;;;;;;59.53;24.77;;;;;;;;;;5163237;27;20516;-70
2022/12/01 07:35:27;;;;;;;66.00;25.17;;;;;;;;;;5163237;27;20047;-70
2022/12/01 07:37:54;;;;;;;73.05;26.27;;;;;;;;;;5157722;27;20051;-71
2022/12/01 07:40:21;;;;;;;72.97;27.70;;;;;;;;;;5162137;27;20062;-71
2022/12/01 07:42:48;;;;;;;76.18;28.35;;;;;;;;;;5163104;27;20641;-71
2022/12/01 07:45:14;;;;;;;67.80;28.42;;;;;;;;;;5166671;27;20438;-71
2022/12/01 07:47:41;;;;;;;78.63;28.75;;;;;;;;;;5164870;27;20050;-71
2022/12/01 07:50:07;;;;;;;73.25;28.85;;;;;;;;;;5147076;27;20051;-71
2022/12/01 07:52:33;;;;;;;79.95;28.23;;;;;;;;;;5165051;27;20043;-71
2022/12/01 07:55:00;;;;;;;77.13;27.52;;;;;;;;;;5160171;27;20103;-71
2022/12/01 07:57:26;;;;;;;79.15;27.95;;;;;;;;;;5159939;27;20061;-71
2022/12/01 07:59:52;;;;;;;77.50;28.27;;;;;;;;;;5150218;27;20047;-71
2022/12/01 08:02:19;;;;;;;79.28;30.08;;;;;;;;;;5146784;27;20340;-71
2022/12/01 08:04:45;;;;;;;71.45;28.65;;;;;;;;;;5134115;27;20038;-71
2022/12/01 08:07:12;;;;;;;72.57;28.42;;;;;;;;;;5164940;27;20476;-71
2022/12/01 08:09:38;;;;;;;74.78;29.80;;;;;;;;;;5165134;27;20054;-71
2022/12/01 08:12:05;;;;;;;65.75;28.63;;;;;;;;;;5166344;27;20046;-71
2022/12/01 08:14:31;;;;;;;74.65;28.13;;;;;;;;;;5165595;27;20054;-70
2022/12/01 08:16:57;;;;;;;76.00;29.40;;;;;;;;;;5163365;27;20057;-71
2022/12/01 08:19:24;;;;;;;79.78;28.55;;;;;;;;;;5152264;27;20087;-70
2022/12/01 08:21:50;;;;;;;72.72;28.25;;;;;;;;;;5163013;27;20051;-71
2022/12/01 08:24:17;;;;;;;68.05;26.92;;;;;;;;;;5161604;27;20524;-71
2022/12/01 08:26:43;;;;;;;78.35;29.45;;;;;;;;;;5160625;27;20043;-68
2022/12/01 08:29:09;;;;;;;72.15;28.42;;;;;;;;;;5162553;27;20141;-70
2022/12/01 08:31:42;;;;;;;71.75;27.58;;;;;;;;;;5163107;27;20131;-69
2022/12/01 08:34:08;;;;;;;71.45;29.70;;;;;;;;;;5163281;27;20592;-71
2022/12/01 08:36:35;;;;;;;83.75;29.23;;;;;;;;;;5162036;27;20436;-71
2022/12/01 08:39:01;;;;;;;74.15;28.98;;;;;;;;;;5164676;27;20058;-71
2022/12/01 08:41:28;;;;;;;77.18;28.92;;;;;;;;;;5162168;27;20054;-71
2022/12/01 08:43:55;;;;;;;72.43;29.23;;;;;;;;;;5165427;27;20051;-71
2022/12/01 08:46:25;;;;;;;80.78;29.33;;;;;;;;;;5164363;27;20043;-70
2022/12/01 08:48:53;;;;;;;71.57;29.00;;;;;;;;;;5162039;27;20051;-71
2022/12/01 08:51:20;;;;;;;72.55;28.67;;;;;;;;;;5165800;27;20050;-69
2022/12/01 08:53:47;;;;;;;72.40;29.83;;;;;;;;;;5159067;27;20197;-70
2022/12/01 08:56:21;;;;;;;72.30;29.55;;;;;;;;;;5146331;27;20501;-69
2022/12/01 08:58:49;;;;;;;81.00;30.88;;;;;;;;;;5163612;27;20043;-69
2022/12/01 09:01:16;;;;;;;69.97;30.52;;;;;;;;;;5165833;27;20058;-70
2022/12/01 09:03:42;;;;;;;72.03;29.38;;;;;;;;;;5163762;27;20055;-70
2022/12/01 09:06:11;;;;;;;79.68;30.50;;;;;;;;;;5163969;27;20130;-70
2022/12/01 09:08:37;;;;;;;79.93;30.13;;;;;;;;;;5146335;27;20506;-71
2022/12/01 09:11:06;;;;;;;71.35;28.45;;;;;;;;;;5163394;27;20039;-69
2022/12/01 09:13:33;;;;;;;67.38;28.80;;;;;;;;;;5155868;27;20627;-69
2022/12/01 09:16:03;;;;;;;71.95;28.83;;;;;;;;;;5145715;27;20062;-70
2022/12/01 09:18:30;;;;;;;66.68;28.25;;;;;;;;;;5153726;27;20172;-70
2022/12/01 09:20:57;;;;;;;67.57;27.95;;;;;;;;;;5134078;27;20050;-70
2022/12/01 09:23:24;;;;;;;74.63;30.45;;;;;;;;;;5144738;27;20047;-71
2022/12/01 09:25:51;;;;;;;79.05;29.95;;;;;;;;;;5164221;27;20051;-70
2022/12/01 09:28:18;;;;;;;65.20;28.30;;;;;;;;;;5145349;27;20051;-70
2022/12/01 09:30:45;;;;;;;61.45;27.77;;;;;;;;;;5164172;27;20077;-69
2022/12/01 09:33:12;;;;;;;77.82;30.50;;;;;;;;;;5163972;27;20568;-69
2022/12/01 09:35:38;;;;;;;64.70;27.45;;;;;;;;;;5159507;27;20046;-70
2022/12/01 09:38:05;;;;;;;71.93;28.08;;;;;;;;;;5159463;27;20484;-70
2022/12/01 09:40:34;;;;;;;66.82;29.00;;;;;;;;;;5145281;27;20496;-70
2022/12/01 09:43:02;;;;;;;69.85;27.77;;;;;;;;;;5147482;27;20051;-70
2022/12/01 09:45:30;;;;;;;74.15;30.05;;;;;;;;;;5153550;27;20495;-70
2022/12/01 09:47:58;;;;;;;75.10;29.65;;;;;;;;;;5162037;27;20046;-70
2022/12/01 09:50:24;;;;;;;69.07;29.77;;;;;;;;;;5164572;27;20054;-70
2022/12/01 09:52:52;;;;;;;68.15;28.73;;;;;;;;;;5158115;27;20619;-69
2022/12/01 09:55:20;;;;;;;75.18;28.63;;;;;;;;;;5144317;27;20046;-70
2022/12/01 09:57:48;;;;;;;67.00;28.98;;;;;;;;;;5163211;27;20039;-70
2022/12/01 10:00:16;;;;;;;80.43;29.15;;;;;;;;;;5163610;27;20572;-69
2022/12/01 10:02:46;;;;;;;75.05;29.50;;;;;;;;;;5162429;27;20535;-69
2022/12/01 10:05:16;;;;;;;68.10;29.02;;;;;;;;;;5155117;27;20058;-69
2022/12/01 10:07:46;;;;;;;68.80;29.30;;;;;;;;;;5164973;27;20086;-70
2022/12/01 10:10:14;;;;;;;85.18;32.15;;;;;;;;;;5163609;27;20055;-70
2022/12/01 10:12:42;;;;;;;77.55;31.40;;;;;;;;;;5163944;27;20512;-69
2022/12/01 10:15:11;;;;;;;83.50;29.83;;;;;;;;;;5165060;27;20465;-70
2022/12/01 10:17:44;;;;;;;76.65;30.08;;;;;;;;;;5164060;27;20051;-70
2022/12/01 10:20:21;;;;;;;77.07;30.95;;;;;;;;;;5160625;27;20507;-70
2022/12/01 10:22:55;;;;;;;72.57;31.10;;;;;;;;;;5151881;27;20144;-70
2022/12/01 10:25:26;;;;;;;67.68;29.40;;;;;;;;;;5155008;27;20054;-71
2022/12/01 10:28:03;;;;;;;68.35;29.95;;;;;;;;;;5164498;27;20549;-70
2022/12/01 10:30:31;;;;;;;72.65;29.67;;;;;;;;;;5162700;27;20108;-70
2022/12/01 10:33:14;;;;;;;72.47;30.25;;;;;;;;;;5162928;27;20465;-70
2022/12/01 10:35:41;;;;;;;70.70;28.48;;;;;;;;;;5167664;27;20050;-71
2022/12/01 10:38:12;;;;;;;73.22;29.70;;;;;;;;;;5166534;27;20047;-70
2022/12/01 10:40:40;;;;;;;72.78;28.88;;;;;;;;;;5148800;27;20427;-71
2022/12/01 10:43:08;;;;;;;69.55;29.35;;;;;;;;;;5167514;27;20545;-71
2022/12/01 10:45:38;;;;;;;66.28;29.30;;;;;;;;;;5163889;27;20416;-71
2022/12/01 10:48:13;;;;;;;65.53;29.13;;;;;;;;;;5166530;27;20051;-70
2022/12/01 10:50:41;;;;;;;62.60;28.27;;;;;;;;;;5161994;27;20062;-70
2022/12/01 10:53:25;;;;;;;60.80;27.65;;;;;;;;;;5153663;27;20333;-71
2022/12/01 10:56:10;;;;;;;67.90;28.10;;;;;;;;;;5165185;27;20058;-70
2022/12/01 10:58:46;;;;;;;66.90;28.00;;;;;;;;;;5161928;27;20058;-71
2022/12/01 11:01:20;;;;;;;66.95;27.63;;;;;;;;;;5159670;27;20051;-71
2022/12/01 11:03:53;;;;;;;61.17;27.73;;;;;;;;;;5165218;27;20507;-71
2022/12/01 11:06:24;;;;;;;61.42;28.13;;;;;;;;;;5165983;27;20263;-71
2022/12/01 11:08:54;;;;;;;57.00;26.73;;;;;;;;;;5166773;27;20054;-71
2022/12/01 11:11:23;;;;;;;63.45;29.17;;;;;;;;;;5167853;27;20051;-71
2022/12/01 11:13:49;;;;;;;62.65;30.00;;;;;;;;;;5163223;27;20051;-68
2022/12/01 11:16:33;;;;;;;59.72;27.67;;;;;;;;;;5163160;27;20047;-69
2022/12/01 11:19:20;;;;;;;60.22;27.48;;;;;;;;;;5163429;27;20057;-69
2022/12/01 11:21:54;;;;;;;57.63;25.92;;;;;;;;;;5159837;27;20047;-69
2022/12/01 11:24:32;;;;;;;55.55;27.20;;;;;;;;;;5155142;27;20047;-69
2022/12/01 11:26:59;;;;;;;53.72;27.50;;;;;;;;;;5165630;27;20877;-68
2022/12/01 11:29:28;;;;;;;64.63;28.30;;;;;;;;;;5167091;27;20094;-69
2022/12/01 11:31:56;;;;;;;63.50;28.17;;;;;;;;;;5166725;27;20184;-69
2022/12/01 11:34:24;;;;;;;60.50;27.83;;;;;;;;;;5165764;27;20054;-69
2022/12/01 11:36:53;;;;;;;61.20;24.88;;;;;;;;;;5165890;27;20065;-69
2022/12/01 11:39:27;;;;;;;58.10;26.27;;;;;;;;;;5165528;27;20047;-69
2022/12/01 11:41:55;;;;;;;51.58;26.35;;;;;;;;;;5149379;27;20057;-69
2022/12/01 11:44:22;;;;;;;55.15;25.63;;;;;;;;;;5139566;27;20053;-69
2022/12/01 11:47:13;;;;;;;58.83;26.30;;;;;;;;;;5155256;27;20580;-70
2022/12/01 11:49:56;;;;;;;62.42;29.13;;;;;;;;;;5161131;27;20054;-69
2022/12/01 11:52:26;;;;;;;59.00;26.15;;;;;;;;;;5142257;27;20514;-69
2022/12/01 11:54:57;;;;;;;55.25;27.80;;;;;;;;;;5166962;27;20053;-69
2022/12/01 11:57:23;;;;;;;65.45;28.52;;;;;;;;;;5151334;27;20055;-68
2022/12/01 12:00:00;;;;;;;54.75;26.20;;;;;;;;;;5153292;27;20395;-68
2022/12/01 12:02:45;;;;;;;56.45;26.55;;;;;;;;;;5165663;27;20053;-68
2022/12/01 12:05:35;;;;;;;55.75;24.65;;;;;;;;;;5158918;27;20085;-68
2022/12/01 12:08:16;;;;;;;56.05;26.55;;;;;;;;;;5153579;27;20077;-68
2022/12/01 12:10:50;;;;;;;57.22;26.70;;;;;;;;;;5160818;27;20096;-68
2022/12/01 12:13:39;;;;;;;56.88;26.02;;;;;;;;;;5165368;27;20047;-68
2022/12/01 12:16:26;;;;;;;58.15;27.00;;;;;;;;;;5157249;27;20058;-69
2022/12/01 12:19:12;;;;;;;46.45;25.35;;;;;;;;;;5147729;27;20139;-68
2022/12/01 12:21:42;;;;;;;48.17;24.85;;;;;;;;;;5149710;27;20081;-69
2022/12/01 12:24:13;;;;;;;55.58;26.85;;;;;;;;;;5166472;27;20104;-68
2022/12/01 12:26:39;;;;;;;49.60;24.95;;;;;;;;;;5165795;27;20111;-68
2022/12/01 12:29:23;;;;;;;47.78;25.05;;;;;;;;;;5161627;27;20090;-69
2022/12/01 12:32:08;;;;;;;54.95;25.63;;;;;;;;;;5154212;27;20489;-69
2022/12/01 12:34:43;;;;;;;48.67;24.55;;;;;;;;;;5163051;27;20054;-68
2022/12/01 12:37:18;;;;;;;55.42;24.67;;;;;;;;;;5161311;27;20532;-68
2022/12/01 12:39:47;;;;;;;52.17;25.38;;;;;;;;;;5165817;27;20827;-68
2022/12/01 12:42:23;;;;;;;50.35;24.83;;;;;;;;;;5163650;27;20051;-69
2022/12/01 12:45:07;;;;;;;55.60;25.05;;;;;;;;;;5157048;27;20040;-69
2022/12/01 12:47:41;;;;;;;54.58;24.67;;;;;;;;;;5155500;27;20050;-68
2022/12/01 12:50:16;;;;;;;50.50;24.33;;;;;;;;;;5164129;27;20057;-69
2022/12/01 12:52:48;;;;;;;49.63;23.33;;;;;;;;;;5162112;27;20042;-68
2022/12/01 12:55:14;;;;;;;48.58;25.55;;;;;;;;;;5163244;27;20055;-68
2022/12/01 12:57:47;;;;;;;55.78;25.00;;;;;;;;;;5164602;27;20085;-67
2022/12/01 13:00:18;;;;;;;53.15;25.88;;;;;;;;;;5162378;27;20571;-68
2022/12/01 13:02:47;;;;;;;49.95;25.98;;;;;;;;;;5163477;27;20058;-68
2022/12/01 13:05:29;;;;;;;54.22;26.58;;;;;;;;;;5161182;27;20531;-69
2022/12/01 13:08:01;;;;;;;52.00;24.27;;;;;;;;;;5161414;27;20054;-69
2022/12/01 13:10:36;;;;;;;54.40;25.83;;;;;;;;;;5163660;27;20512;-69
2022/12/01 13:13:23;;;;;;;53.78;25.27;;;;;;;;;;5163835;27;20058;-69
2022/12/01 13:15:50;;;;;;;44.67;23.70;;;;;;;;;;5143626;27;20142;-68
2022/12/01 13:18:36;;;;;;;44.85;24.30;;;;;;;;;;5156370;27;20057;-68
2022/12/01 13:21:03;;;;;;;50.28;24.63;;;;;;;;;;5166187;27;20083;-68
2022/12/01 13:23:29;;;;;;;46.13;24.13;;;;;;;;;;5165359;27;20061;-69
2022/12/01 13:25:58;;;;;;;48.33;23.90;;;;;;;;;;5162265;27;20139;-68
2022/12/01 13:28:27;;;;;;;46.10;23.42;;;;;;;;;;5165708;27;20055;-69
2022/12/01 13:31:05;;;;;;;43.05;22.17;;;;;;;;;;5145728;27;20779;-68
2022/12/01 13:33:32;;;;;;;50.05;22.33;;;;;;;;;;5164596;27;20058;-68
2022/12/01 13:35:59;;;;;;;42.15;22.05;;;;;;;;;;5158503;27;20051;-69
2022/12/01 13:38:59;;;;;;;44.15;22.23;;;;;;;;;;5165093;27;20082;-69
2022/12/01 13:41:26;;;;;;;47.15;23.60;;;;;;;;;;5153779;27;20100;-69
2022/12/01 13:43:59;;;;;;;42.58;21.98;;;;;;;;;;5160065;27;20069;-69
2022/12/01 13:46:28;;;;;;;39.15;22.17;;;;;;;;;;5163167;27;20065;-69
2022/12/01 13:48:55;;;;;;;52.10;22.40;;;;;;;;;;5166455;27;20061;-69
2022/12/01 13:51:23;;;;;;;41.53;22.45;;;;;;;;;;5166433;27;20050;-69
2022/12/01 13:53:55;;;;;;;46.30;23.02;;;;;;;;;;5161104;27;20508;-68
2022/12/01 13:56:26;;;;;;;49.08;23.85;;;;;;;;;;5153694;27;20053;-68
2022/12/01 13:58:53;;;;;;;44.83;22.23;;;;;;;;;;5162219;27;20137;-69
2022/12/01 14:01:19;;;;;;;46.53;21.60;;;;;;;;;;5159611;27;20118;-69
2022/12/01 14:03:50;;;;;;;42.65;22.08;;;;;;;;;;5164102;27;20460;-69
2022/12/01 14:06:45;;;;;;;43.50;22.20;;;;;;;;;;5149253;27;20046;-69
2022/12/01 14:09:14;;;;;;;46.75;23.17;;;;;;;;;;5150791;27;20047;-64
2022/12/01 14:11:52;;;;;;;39.40;21.00;;;;;;;;;;5164096;27;20553;-68
2022/12/01 14:14:20;;;;;;;45.15;22.13;;;;;;;;;;5143368;27;20074;-67
2022/12/01 14:16:57;;;;;;;46.13;22.55;;;;;;;;;;5163419;27;20516;-68
2022/12/01 14:19:26;;;;;;;44.97;23.45;;;;;;;;;;5163887;27;20450;-68
2022/12/01 14:21:52;;;;;;;43.28;21.88;;;;;;;;;;5163780;27;20550;-67
2022/12/01 14:24:24;;;;;;;43.67;22.50;;;;;;;;;;5162686;27;20055;-67
2022/12/01 14:26:51;;;;;;;43.05;23.13;;;;;;;;;;5161535;27;20057;-68
2022/12/01 14:29:25;;;;;;;43.83;22.80;;;;;;;;;;5144719;27;20111;-68
2022/12/01 14:31:51;;;;;;;45.90;22.55;;;;;;;;;;5164611;27;20055;-68
2022/12/01 14:34:23;;;;;;;42.35;22.38;;;;;;;;;;5164000;27;20047;-68
2022/12/01 14:37:06;;;;;;;40.58;21.63;;;;;;;;;;5162878;27;20494;-68